Turner Valley, Canada
Current Conditions -  °F | °C
As of 5:00 AM on Sunday 21 Dec 2014 (Local Time) from CYBW Reporting Station
Overcast Overcast  
Wind Chill: 20°   Ceiling: 15000
Heat Index: 28°   Visibility: 9mi
Dew Point: 21°   Wind: 9mph
Humidity: 74%   Direction: 300°WNW
Pressure: 29.16"   Gusts: NA
Location:  50.68°N, 114.27°W
Report Text: CYBW 211200Z AUTO 30008KT 9SM OVC150 M02/M06 A2916 RMK SLP915
Loading
Personal Weather Stations






























Interactive Weather Map New forecast layout! Learn more

10-Day Weather Forecast

Advertisements
Track Severe Weather on mobile